TimeEDT,TemperatureF,Dew PointF,Humidity,Sea Level PressureIn,VisibilityMPH,Wind Direction,Wind SpeedMPH,Gust SpeedMPH,PrecipitationIn,Events,Conditions,WindDirDegrees,DateUTC
12:15 AM,72.1,72.1,100,29.88,5.0,Calm,Calm,-,N/A,Rain,Rain,0,2013-07-01 04:15:00
12:35 AM,72.0,72.0,100,29.87,5.0,Calm,Calm,-,0.01,Rain,Rain,0,2013-07-01 04:35:00
12:55 AM,72.0,72.0,100,29.87,7.0,Calm,Calm,-,0.02,Rain,Light Rain,0,2013-07-01 04:55:00
1:15 AM,71.8,71.8,100,29.87,7.0,Calm,Calm,-,0.01,Rain,Rain,0,2013-07-01 05:15:00
1:35 AM,71.8,71.8,100,29.87,7.0,SSE,3.5,-,0.01,Rain,Light Rain,150,2013-07-01 05:35:00
1:55 AM,71.6,71.6,100,29.86,7.0,Calm,Calm,-,0.02,Rain,Light Rain,0,2013-07-01 05:55:00
2:15 AM,71.6,71.6,100,29.86,10.0,Calm,Calm,-,N/A,Rain,Light Rain,0,2013-07-01 06:15:00
2:35 AM,71.6,71.6,100,29.86,10.0,Calm,Calm,-,N/A,,Light Drizzle,0,2013-07-01 06:35:00
2:55 AM,71.6,71.6,100,29.86,10.0,Calm,Calm,-,N/A,,Scattered Clouds,0,2013-07-01 06:55:00
3:15 AM,71.2,71.2,100,29.86,7.0,Calm,Calm,-,N/A,,Mostly Cloudy,0,2013-07-01 07:15:00
3:35 AM,71.2,71.2,100,29.86,10.0,SSE,3.5,-,N/A,,Mostly Cloudy,150,2013-07-01 07:35:00
3:55 AM,71.2,71.2,100,29.86,7.0,Calm,Calm,-,N/A,,Overcast,0,2013-07-01 07:55:00
4:15 AM,71.2,71.2,100,29.86,7.0,Calm,Calm,-,N/A,,Overcast,0,2013-07-01 08:15:00
4:35 AM,71.2,71.2,100,29.87,7.0,Calm,Calm,-,N/A,,Overcast,0,2013-07-01 08:35:00
4:55 AM,71.2,71.2,100,29.87,7.0,Calm,Calm,-,N/A,,Unknown,0,2013-07-01 08:55:00
5:15 AM,71.1,71.1,100,29.88,7.0,Calm,Calm,-,N/A,,Unknown,0,2013-07-01 09:15:00
5:35 AM,71.1,71.1,100,29.88,7.0,Calm,Calm,-,N/A,,Unknown,0,2013-07-01 09:35:00
5:55 AM,71.6,71.6,100,29.89,7.0,Calm,Calm,-,N/A,,Unknown,0,2013-07-01 09:55:00
6:15 AM,71.6,71.6,100,29.90,10.0,Calm,Calm,-,N/A,,Overcast,0,2013-07-01 10:15:00
6:35 AM,71.8,71.8,100,29.89,10.0,Calm,Calm,-,N/A,,Overcast,0,2013-07-01 10:35:00
6:55 AM,72.3,72.3,100,29.90,10.0,Calm,Calm,-,N/A,,Overcast,0,2013-07-01 10:55:00
7:15 AM,72.9,72.9,100,29.91,10.0,WSW,3.5,-,N/A,,Overcast,250,2013-07-01 11:15:00
7:35 AM,73.0,72.9,99,29.91,10.0,SSE,3.5,-,N/A,,Mostly Cloudy,150,2013-07-01 11:35:00
7:55 AM,73.4,73.2,99,29.91,10.0,SE,5.8,-,N/A,,Mostly Cloudy,140,2013-07-01 11:55:00
8:15 AM,74.1,73.4,98,29.91,10.0,SSE,5.8,-,N/A,,Overcast,150,2013-07-01 12:15:00
8:35 AM,74.8,73.6,96,29.91,10.0,SSE,5.8,-,N/A,,Overcast,160,2013-07-01 12:35:00
8:55 AM,74.7,73.4,96,29.91,10.0,SSE,3.5,-,N/A,,Overcast,160,2013-07-01 12:55:00
9:15 AM,73.9,73.8,99,29.92,0.8,SSE,4.6,-,0.13,Rain,Heavy Rain,160,2013-07-01 13:15:00
9:35 AM,74.1,74.1,100,29.92,3.0,SE,4.6,-,0.16,Rain,Light Rain,130,2013-07-01 13:35:00
9:55 AM,74.7,74.7,100,29.93,10.0,SSE,3.5,-,0.17,,Unknown,160,2013-07-01 13:55:00
10:15 AM,75.4,74.7,98,29.92,10.0,SSE,3.5,-,N/A,,Unknown,150,2013-07-01 14:15:00
10:35 AM,75.6,74.5,96,29.93,10.0,Calm,Calm,-,N/A,,Unknown,0,2013-07-01 14:35:00
10:55 AM,75.7,74.5,96,29.93,10.0,Calm,Calm,-,N/A,Rain,Light Rain,0,2013-07-01 14:55:00
11:15 AM,75.4,74.8,98,29.94,2.0,SSE,4.6,-,0.05,Rain,Heavy Rain,150,2013-07-01 15:15:00
11:35 AM,74.7,74.7,100,29.92,5.0,South,3.5,-,0.11,Rain,Light Rain,170,2013-07-01 15:35:00
11:55 AM,75.4,75.4,100,29.93,4.0,South,4.6,-,0.12,Rain,Light Rain,180,2013-07-01 15:55:00
12:15 PM,76.8,76.5,99,29.93,10.0,SSE,9.2,-,N/A,Rain,Light Rain,160,2013-07-01 16:15:00
12:35 PM,78.6,74.3,87,29.93,10.0,South,8.1,-,N/A,,Unknown,190,2013-07-01 16:35:00
12:55 PM,79.3,73.4,82,29.93,10.0,South,9.2,-,N/A,,Unknown,190,2013-07-01 16:55:00
1:15 PM,80.2,73.6,80,29.92,10.0,South,8.1,-,N/A,,Clear,190,2013-07-01 17:15:00
1:35 PM,81.5,73.9,78,29.91,10.0,SSE,6.9,-,N/A,,Clear,160,2013-07-01 17:35:00
1:55 PM,82.0,70.3,68,29.92,10.0,South,8.1,-,N/A,,Clear,180,2013-07-01 17:55:00
2:15 PM,82.6,70.7,67,29.92,10.0,SSE,9.2,-,N/A,,Scattered Clouds,160,2013-07-01 18:15:00
2:35 PM,83.1,71.1,67,29.92,10.0,South,6.9,-,N/A,,Mostly Cloudy,180,2013-07-01 18:35:00
2:55 PM,83.7,70.0,63,29.92,10.0,South,6.9,-,N/A,,Mostly Cloudy,190,2013-07-01 18:55:00
3:15 PM,84.6,69.8,61,29.91,10.0,SSE,8.1,-,N/A,,Scattered Clouds,150,2013-07-01 19:15:00
3:35 PM,84.4,70.7,63,29.91,10.0,SSW,6.9,-,N/A,,Clear,210,2013-07-01 19:35:00
3:55 PM,84.2,70.9,64,29.92,10.0,South,8.1,-,N/A,,Scattered Clouds,170,2013-07-01 19:55:00
4:15 PM,84.2,71.4,65,29.92,10.0,SSE,5.8,-,N/A,,Mostly Cloudy,160,2013-07-01 20:15:00
4:35 PM,84.4,70.2,62,29.92,10.0,South,8.1,-,N/A,,Scattered Clouds,170,2013-07-01 20:35:00
4:55 PM,84.7,70.3,62,29.91,10.0,South,8.1,-,N/A,,Clear,170,2013-07-01 20:55:00
5:15 PM,84.7,70.7,63,29.92,10.0,SSE,6.9,-,N/A,,Clear,160,2013-07-01 21:15:00
5:35 PM,85.5,71.2,62,29.92,10.0,SSE,10.4,-,N/A,,Clear,160,2013-07-01 21:35:00
5:55 PM,84.2,71.4,65,29.92,10.0,SSE,9.2,-,N/A,,Clear,150,2013-07-01 21:55:00
6:15 PM,84.2,72.1,67,29.93,10.0,SSE,10.4,-,N/A,,Scattered Clouds,160,2013-07-01 22:15:00
6:35 PM,83.3,72.5,70,29.94,10.0,South,10.4,18.4,N/A,,Scattered Clouds,170,2013-07-01 22:35:00
6:55 PM,80.8,72.5,76,29.94,10.0,South,8.1,-,N/A,,Mostly Cloudy,170,2013-07-01 22:55:00
7:15 PM,81.0,72.7,76,29.94,10.0,SSE,6.9,-,N/A,,Scattered Clouds,160,2013-07-01 23:15:00
7:35 PM,80.6,73.4,79,29.94,10.0,SSE,8.1,-,N/A,,Scattered Clouds,160,2013-07-01 23:35:00
7:55 PM,79.9,73.4,80,29.95,10.0,South,11.5,19.6,N/A,,Scattered Clouds,170,2013-07-01 23:55:00
8:15 PM,79.3,72.7,80,29.95,10.0,South,11.5,-,N/A,,Clear,180,2013-07-02 00:15:00
8:35 PM,78.8,72.5,81,29.95,10.0,South,8.1,-,N/A,,Clear,180,2013-07-02 00:35:00
8:55 PM,78.1,72.9,84,29.95,10.0,South,5.8,-,N/A,,Scattered Clouds,170,2013-07-02 00:55:00
9:15 PM,77.4,73.0,86,29.96,10.0,SSE,6.9,-,N/A,,Clear,150,2013-07-02 01:15:00
9:35 PM,77.0,73.8,90,29.96,10.0,SSE,6.9,-,N/A,,Clear,160,2013-07-02 01:35:00
9:55 PM,76.8,74.7,93,29.96,10.0,SSE,6.9,-,N/A,,Scattered Clouds,160,2013-07-02 01:55:00
10:15 PM,76.5,74.8,95,29.97,10.0,SSE,4.6,-,N/A,,Unknown,160,2013-07-02 02:15:00
10:35 PM,76.6,75.2,95,29.98,10.0,South,5.8,-,N/A,,Unknown,170,2013-07-02 02:35:00
10:55 PM,76.8,75.0,94,29.98,10.0,South,8.1,-,N/A,,Unknown,180,2013-07-02 02:55:00
11:15 PM,77.0,74.7,92,29.99,10.0,South,8.1,-,N/A,,Unknown,190,2013-07-02 03:15:00
11:35 PM,77.2,74.3,91,29.99,10.0,South,9.2,-,N/A,,Unknown,180,2013-07-02 03:35:00
11:55 PM,77.4,72.9,86,29.99,10.0,South,9.2,-,N/A,,Unknown,170,2013-07-02 03:55:00